sensor_id;sensor_type;location;lat;lon;timestamp;temperature;humidity
32877;DHT22;19226;51.600;8.034;2023-03-09T00:00:30;2.10;99.90
32877;DHT22;19226;51.600;8.034;2023-03-09T00:03:14;2.10;99.90
32877;DHT22;19226;51.600;8.034;2023-03-09T00:06:02;2.10;99.90
32877;DHT22;19226;51.600;8.034;2023-03-09T00:08:46;2.20;99.90
32877;DHT22;19226;51.600;8.034;2023-03-09T00:11:31;2.20;99.90
32877;DHT22;19226;51.600;8.034;2023-03-09T00:14:17;2.20;99.90
32877;DHT22;19226;51.600;8.034;2023-03-09T00:17:02;2.20;99.90
32877;DHT22;19226;51.600;8.034;2023-03-09T00:19:47;2.20;99.90
32877;DHT22;19226;51.600;8.034;2023-03-09T00:22:32;2.20;99.90
32877;DHT22;19226;51.600;8.034;2023-03-09T00:25:18;2.10;99.90
32877;DHT22;19226;51.600;8.034;2023-03-09T00:28:03;2.20;99.90
32877;DHT22;19226;51.600;8.034;2023-03-09T00:30:49;2.20;99.90
32877;DHT22;19226;51.600;8.034;2023-03-09T00:33:34;2.20;99.90
32877;DHT22;19226;51.600;8.034;2023-03-09T00:36:18;2.20;99.90
32877;DHT22;19226;51.600;8.034;2023-03-09T00:39:03;2.20;99.90
32877;DHT22;19226;51.600;8.034;2023-03-09T00:41:48;2.30;99.90
32877;DHT22;19226;51.600;8.034;2023-03-09T00:44:33;2.30;99.90
32877;DHT22;19226;51.600;8.034;2023-03-09T00:47:19;2.30;99.90
32877;DHT22;19226;51.600;8.034;2023-03-09T00:50:04;2.30;99.90
32877;DHT22;19226;51.600;8.034;2023-03-09T00:52:49;2.30;99.90
32877;DHT22;19226;51.600;8.034;2023-03-09T00:55:34;2.30;99.90
32877;DHT22;19226;51.600;8.034;2023-03-09T00:58:18;2.30;99.90
32877;DHT22;19226;51.600;8.034;2023-03-09T01:01:12;2.30;99.90
32877;DHT22;19226;51.600;8.034;2023-03-09T01:03:57;2.30;99.90
32877;DHT22;19226;51.600;8.034;2023-03-09T01:06:42;2.30;99.90
32877;DHT22;19226;51.600;8.034;2023-03-09T01:09:26;2.30;99.90
32877;DHT22;19226;51.600;8.034;2023-03-09T01:12:11;2.30;99.90
32877;DHT22;19226;51.600;8.034;2023-03-09T01:14:56;2.20;99.90
32877;DHT22;19226;51.600;8.034;2023-03-09T01:17:41;2.30;99.90
32877;DHT22;19226;51.600;8.034;2023-03-09T01:20:27;2.30;99.90
32877;DHT22;19226;51.600;8.034;2023-03-09T01:23:12;2.30;99.90
32877;DHT22;19226;51.600;8.034;2023-03-09T01:25:57;2.40;99.90
32877;DHT22;19226;51.600;8.034;2023-03-09T01:28:41;2.40;99.90
32877;DHT22;19226;51.600;8.034;2023-03-09T01:31:25;2.40;99.90
32877;DHT22;19226;51.600;8.034;2023-03-09T01:34:13;2.40;99.90
32877;DHT22;19226;51.600;8.034;2023-03-09T01:36:58;2.50;99.90
32877;DHT22;19226;51.600;8.034;2023-03-09T01:39:43;2.40;99.90
32877;DHT22;19226;51.600;8.034;2023-03-09T01:42:27;2.50;99.90
32877;DHT22;19226;51.600;8.034;2023-03-09T01:48:17;2.50;99.90
32877;DHT22;19226;51.600;8.034;2023-03-09T01:51:02;2.50;99.90
32877;DHT22;19226;51.600;8.034;2023-03-09T01:53:48;2.50;99.90
32877;DHT22;19226;51.600;8.034;2023-03-09T01:56:35;2.50;99.90
32877;DHT22;19226;51.600;8.034;2023-03-09T01:59:22;2.50;99.90
32877;DHT22;19226;51.600;8.034;2023-03-09T02:02:09;2.50;99.90
32877;DHT22;19226;51.600;8.034;2023-03-09T02:04:58;2.50;99.90
32877;DHT22;19226;51.600;8.034;2023-03-09T02:07:45;2.50;99.90
32877;DHT22;19226;51.600;8.034;2023-03-09T02:10:37;2.50;99.90
32877;DHT22;19226;51.600;8.034;2023-03-09T02:13:30;2.50;99.90
32877;DHT22;19226;51.600;8.034;2023-03-09T02:16:16;2.60;99.90
32877;DHT22;19226;51.600;8.034;2023-03-09T02:19:01;2.60;99.90
32877;DHT22;19226;51.600;8.034;2023-03-09T02:21:53;2.60;99.90
32877;DHT22;19226;51.600;8.034;2023-03-09T02:27:32;2.60;99.90
32877;DHT22;19226;51.600;8.034;2023-03-09T02:30:17;2.60;99.90
32877;DHT22;19226;51.600;8.034;2023-03-09T02:33:08;2.60;99.90
32877;DHT22;19226;51.600;8.034;2023-03-09T02:35:57;2.60;99.90
32877;DHT22;19226;51.600;8.034;2023-03-09T02:38:43;2.70;99.90
32877;DHT22;19226;51.600;8.034;2023-03-09T02:41:27;2.70;99.90
32877;DHT22;19226;51.600;8.034;2023-03-09T02:44:14;2.70;99.90
32877;DHT22;19226;51.600;8.034;2023-03-09T02:47:08;2.60;99.90
32877;DHT22;19226;51.600;8.034;2023-03-09T02:49:54;2.60;99.90
32877;DHT22;19226;51.600;8.034;2023-03-09T02:52:40;2.60;99.90
32877;DHT22;19226;51.600;8.034;2023-03-09T02:55:25;2.60;99.90
32877;DHT22;19226;51.600;8.034;2023-03-09T02:58:10;2.70;99.90
32877;DHT22;19226;51.600;8.034;2023-03-09T03:00:55;2.70;99.90
32877;DHT22;19226;51.600;8.034;2023-03-09T03:03:40;2.70;99.90
32877;DHT22;19226;51.600;8.034;2023-03-09T03:06:24;2.70;99.90
32877;DHT22;19226;51.600;8.034;2023-03-09T03:09:09;2.70;99.90
32877;DHT22;19226;51.600;8.034;2023-03-09T03:11:54;2.70;99.90
32877;DHT22;19226;51.600;8.034;2023-03-09T03:14:38;2.70;99.90
32877;DHT22;19226;51.600;8.034;2023-03-09T03:17:23;2.80;99.90
32877;DHT22;19226;51.600;8.034;2023-03-09T03:20:08;2.70;99.90
32877;DHT22;19226;51.600;8.034;2023-03-09T03:22:56;2.80;99.90
32877;DHT22;19226;51.600;8.034;2023-03-09T03:25:49;2.70;99.90
32877;DHT22;19226;51.600;8.034;2023-03-09T03:28:34;2.70;99.90
32877;DHT22;19226;51.600;8.034;2023-03-09T03:31:23;2.70;99.90
32877;DHT22;19226;51.600;8.034;2023-03-09T03:34:09;2.70;99.90
32877;DHT22;19226;51.600;8.034;2023-03-09T03:36:58;2.70;99.90
32877;DHT22;19226;51.600;8.034;2023-03-09T03:39:44;2.70;99.90
32877;DHT22;19226;51.600;8.034;2023-03-09T03:42:28;2.70;99.90
32877;DHT22;19226;51.600;8.034;2023-03-09T03:45:13;2.70;99.90
32877;DHT22;19226;51.600;8.034;2023-03-09T03:47:57;2.70;99.90
32877;DHT22;19226;51.600;8.034;2023-03-09T03:50:42;2.70;99.90
32877;DHT22;19226;51.600;8.034;2023-03-09T03:53:26;2.80;99.90
32877;DHT22;19226;51.600;8.034;2023-03-09T03:56:12;2.80;99.90
32877;DHT22;19226;51.600;8.034;2023-03-09T03:58:59;2.70;99.90
32877;DHT22;19226;51.600;8.034;2023-03-09T04:01:43;2.70;99.90
32877;DHT22;19226;51.600;8.034;2023-03-09T04:04:29;2.70;99.90
32877;DHT22;19226;51.600;8.034;2023-03-09T04:07:19;2.70;99.90
32877;DHT22;19226;51.600;8.034;2023-03-09T04:10:04;2.70;99.90
32877;DHT22;19226;51.600;8.034;2023-03-09T04:12:52;2.70;99.90
32877;DHT22;19226;51.600;8.034;2023-03-09T04:15:36;2.70;99.90
32877;DHT22;19226;51.600;8.034;2023-03-09T04:18:21;2.70;99.90
32877;DHT22;19226;51.600;8.034;2023-03-09T04:21:06;2.70;99.90
32877;DHT22;19226;51.600;8.034;2023-03-09T04:23:51;2.70;99.90
32877;DHT22;19226;51.600;8.034;2023-03-09T04:26:35;2.70;99.90
32877;DHT22;19226;51.600;8.034;2023-03-09T04:29:26;2.70;99.90
32877;DHT22;19226;51.600;8.034;2023-03-09T04:32:10;2.70;99.90
32877;DHT22;19226;51.600;8.034;2023-03-09T04:34:55;2.60;99.90
32877;DHT22;19226;51.600;8.034;2023-03-09T04:37:40;2.60;99.90
32877;DHT22;19226;51.600;8.034;2023-03-09T04:40:25;2.70;99.90
32877;DHT22;19226;51.600;8.034;2023-03-09T04:43:13;2.70;99.90
32877;DHT22;19226;51.600;8.034;2023-03-09T04:45:57;2.70;99.90
32877;DHT22;19226;51.600;8.034;2023-03-09T04:48:43;2.70;99.90
32877;DHT22;19226;51.600;8.034;2023-03-09T04:51:27;2.70;99.90
32877;DHT22;19226;51.600;8.034;2023-03-09T04:54:14;2.70;99.90
32877;DHT22;19226;51.600;8.034;2023-03-09T04:56:59;2.70;99.90
32877;DHT22;19226;51.600;8.034;2023-03-09T04:59:45;2.80;99.90
32877;DHT22;19226;51.600;8.034;2023-03-09T05:02:30;2.70;99.90
32877;DHT22;19226;51.600;8.034;2023-03-09T05:05:15;2.70;99.90
32877;DHT22;19226;51.600;8.034;2023-03-09T05:08:04;2.80;99.90
32877;DHT22;19226;51.600;8.034;2023-03-09T05:10:49;2.70;99.90
32877;DHT22;19226;51.600;8.034;2023-03-09T05:13:35;2.70;99.90
32877;DHT22;19226;51.600;8.034;2023-03-09T05:16:21;2.70;99.90
32877;DHT22;19226;51.600;8.034;2023-03-09T05:19:09;2.60;99.90
32877;DHT22;19226;51.600;8.034;2023-03-09T05:21:56;2.60;99.90
32877;DHT22;19226;51.600;8.034;2023-03-09T05:24:41;2.60;99.90
32877;DHT22;19226;51.600;8.034;2023-03-09T05:27:25;2.70;99.90
32877;DHT22;19226;51.600;8.034;2023-03-09T05:30:11;2.70;99.90
32877;DHT22;19226;51.600;8.034;2023-03-09T05:32:58;2.60;99.90
32877;DHT22;19226;51.600;8.034;2023-03-09T05:35:44;2.70;99.90
32877;DHT22;19226;51.600;8.034;2023-03-09T05:38:29;2.70;99.90
32877;DHT22;19226;51.600;8.034;2023-03-09T05:41:15;2.70;99.90
32877;DHT22;19226;51.600;8.034;2023-03-09T05:44:00;2.70;99.90
32877;DHT22;19226;51.600;8.034;2023-03-09T05:46:45;2.70;99.90
32877;DHT22;19226;51.600;8.034;2023-03-09T05:49:29;2.70;99.90
32877;DHT22;19226;51.600;8.034;2023-03-09T05:52:15;2.80;99.90
32877;DHT22;19226;51.600;8.034;2023-03-09T05:55:00;2.80;99.90
32877;DHT22;19226;51.600;8.034;2023-03-09T05:57:46;2.80;99.90
32877;DHT22;19226;51.600;8.034;2023-03-09T06:00:31;2.80;99.90
32877;DHT22;19226;51.600;8.034;2023-03-09T06:03:20;2.70;99.90
32877;DHT22;19226;51.600;8.034;2023-03-09T06:06:10;2.70;99.90
32877;DHT22;19226;51.600;8.034;2023-03-09T06:08:58;2.70;99.90
32877;DHT22;19226;51.600;8.034;2023-03-09T06:11:44;2.70;99.90
32877;DHT22;19226;51.600;8.034;2023-03-09T06:14:28;2.70;99.90
32877;DHT22;19226;51.600;8.034;2023-03-09T06:17:13;2.70;99.90
32877;DHT22;19226;51.600;8.034;2023-03-09T06:19:59;2.60;99.90
32877;DHT22;19226;51.600;8.034;2023-03-09T06:22:44;2.60;99.90
32877;DHT22;19226;51.600;8.034;2023-03-09T06:25:30;2.70;99.90
32877;DHT22;19226;51.600;8.034;2023-03-09T06:28:16;2.60;99.90
32877;DHT22;19226;51.600;8.034;2023-03-09T06:31:06;2.70;99.90
32877;DHT22;19226;51.600;8.034;2023-03-09T06:33:51;2.70;99.90
32877;DHT22;19226;51.600;8.034;2023-03-09T06:36:37;2.70;99.90
32877;DHT22;19226;51.600;8.034;2023-03-09T06:39:22;2.80;99.90
32877;DHT22;19226;51.600;8.034;2023-03-09T06:42:06;2.80;99.90
32877;DHT22;19226;51.600;8.034;2023-03-09T06:44:59;2.80;99.90
32877;DHT22;19226;51.600;8.034;2023-03-09T06:47:47;2.80;99.90
32877;DHT22;19226;51.600;8.034;2023-03-09T06:50:32;2.80;99.90
32877;DHT22;19226;51.600;8.034;2023-03-09T06:53:17;2.80;99.90
32877;DHT22;19226;51.600;8.034;2023-03-09T06:56:06;2.80;99.90
32877;DHT22;19226;51.600;8.034;2023-03-09T06:58:53;2.90;99.90
32877;DHT22;19226;51.600;8.034;2023-03-09T07:01:39;2.80;99.90
32877;DHT22;19226;51.600;8.034;2023-03-09T07:04:24;2.80;99.90
32877;DHT22;19226;51.600;8.034;2023-03-09T07:07:08;2.90;99.90
32877;DHT22;19226;51.600;8.034;2023-03-09T07:09:52;2.80;99.90
32877;DHT22;19226;51.600;8.034;2023-03-09T07:12:37;2.80;99.90
32877;DHT22;19226;51.600;8.034;2023-03-09T07:15:22;2.80;99.90
32877;DHT22;19226;51.600;8.034;2023-03-09T07:18:06;2.80;99.90
32877;DHT22;19226;51.600;8.034;2023-03-09T07:20:51;2.80;99.90
32877;DHT22;19226;51.600;8.034;2023-03-09T07:23:35;2.80;99.90
32877;DHT22;19226;51.600;8.034;2023-03-09T07:26:20;2.80;99.90
32877;DHT22;19226;51.600;8.034;2023-03-09T07:29:04;2.80;99.90
32877;DHT22;19226;51.600;8.034;2023-03-09T07:31:49;2.80;99.90
32877;DHT22;19226;51.600;8.034;2023-03-09T07:34:33;2.90;99.90
32877;DHT22;19226;51.600;8.034;2023-03-09T07:37:18;2.90;99.90
32877;DHT22;19226;51.600;8.034;2023-03-09T07:40:03;2.90;99.90
32877;DHT22;19226;51.600;8.034;2023-03-09T07:42:49;2.90;99.90
32877;DHT22;19226;51.600;8.034;2023-03-09T07:45:56;2.90;99.90
32877;DHT22;19226;51.600;8.034;2023-03-09T07:48:42;3.00;99.90
32877;DHT22;19226;51.600;8.034;2023-03-09T07:51:26;3.00;99.90
32877;DHT22;19226;51.600;8.034;2023-03-09T07:54:11;3.00;99.90
32877;DHT22;19226;51.600;8.034;2023-03-09T07:56:55;3.00;99.90
32877;DHT22;19226;51.600;8.034;2023-03-09T07:59:40;3.00;99.90
32877;DHT22;19226;51.600;8.034;2023-03-09T08:02:25;3.00;99.90
32877;DHT22;19226;51.600;8.034;2023-03-09T08:05:10;3.00;99.90
32877;DHT22;19226;51.600;8.034;2023-03-09T08:07:54;3.10;99.90
32877;DHT22;19226;51.600;8.034;2023-03-09T08:10:39;3.10;99.90
32877;DHT22;19226;51.600;8.034;2023-03-09T08:13:25;3.10;99.90
32877;DHT22;19226;51.600;8.034;2023-03-09T08:16:10;3.20;99.90
32877;DHT22;19226;51.600;8.034;2023-03-09T08:18:55;3.20;99.90
32877;DHT22;19226;51.600;8.034;2023-03-09T08:21:39;3.20;99.90
32877;DHT22;19226;51.600;8.034;2023-03-09T08:24:24;3.20;99.90
32877;DHT22;19226;51.600;8.034;2023-03-09T08:27:08;3.20;99.90
32877;DHT22;19226;51.600;8.034;2023-03-09T08:29:54;3.20;99.90
32877;DHT22;19226;51.600;8.034;2023-03-09T08:32:39;3.20;99.90
32877;DHT22;19226;51.600;8.034;2023-03-09T08:35:27;3.20;99.90
32877;DHT22;19226;51.600;8.034;2023-03-09T08:38:11;3.30;99.90
32877;DHT22;19226;51.600;8.034;2023-03-09T08:40:57;3.30;99.90
32877;DHT22;19226;51.600;8.034;2023-03-09T08:43:41;3.30;99.90
32877;DHT22;19226;51.600;8.034;2023-03-09T08:46:26;3.30;99.90
32877;DHT22;19226;51.600;8.034;2023-03-09T08:49:10;3.40;99.90
32877;DHT22;19226;51.600;8.034;2023-03-09T08:51:55;3.40;99.90
32877;DHT22;19226;51.600;8.034;2023-03-09T08:54:39;3.40;99.90
32877;DHT22;19226;51.600;8.034;2023-03-09T08:57:24;3.50;99.90
32877;DHT22;19226;51.600;8.034;2023-03-09T09:00:10;3.50;99.90
32877;DHT22;19226;51.600;8.034;2023-03-09T09:02:55;3.50;99.90
32877;DHT22;19226;51.600;8.034;2023-03-09T09:05:39;3.50;99.90
32877;DHT22;19226;51.600;8.034;2023-03-09T09:08:24;3.50;99.90
32877;DHT22;19226;51.600;8.034;2023-03-09T09:11:14;3.50;99.90
32877;DHT22;19226;51.600;8.034;2023-03-09T09:13:59;3.60;99.90
32877;DHT22;19226;51.600;8.034;2023-03-09T09:16:43;3.50;99.90
32877;DHT22;19226;51.600;8.034;2023-03-09T09:19:31;3.60;99.90
32877;DHT22;19226;51.600;8.034;2023-03-09T09:22:15;3.50;99.90
32877;DHT22;19226;51.600;8.034;2023-03-09T09:25:01;3.60;99.90
32877;DHT22;19226;51.600;8.034;2023-03-09T09:27:50;3.60;99.90
32877;DHT22;19226;51.600;8.034;2023-03-09T09:30:35;3.70;99.90
32877;DHT22;19226;51.600;8.034;2023-03-09T09:33:21;3.70;99.90
32877;DHT22;19226;51.600;8.034;2023-03-09T09:36:08;3.70;99.90
32877;DHT22;19226;51.600;8.034;2023-03-09T09:38:56;3.70;99.90
32877;DHT22;19226;51.600;8.034;2023-03-09T09:41:42;3.80;99.90
32877;DHT22;19226;51.600;8.034;2023-03-09T09:44:32;3.80;99.90
32877;DHT22;19226;51.600;8.034;2023-03-09T09:47:24;3.80;99.90
32877;DHT22;19226;51.600;8.034;2023-03-09T09:50:12;3.80;99.90
32877;DHT22;19226;51.600;8.034;2023-03-09T09:53:12;3.80;99.90
32877;DHT22;19226;51.600;8.034;2023-03-09T09:55:59;3.80;99.90
32877;DHT22;19226;51.600;8.034;2023-03-09T09:58:58;3.90;99.90
32877;DHT22;19226;51.600;8.034;2023-03-09T10:05:04;3.90;99.90
32877;DHT22;19226;51.600;8.034;2023-03-09T10:07:52;3.90;99.90
32877;DHT22;19226;51.600;8.034;2023-03-09T10:10:40;4.00;99.90
32877;DHT22;19226;51.600;8.034;2023-03-09T10:13:34;4.00;99.90
32877;DHT22;19226;51.600;8.034;2023-03-09T10:16:24;4.00;99.90
32877;DHT22;19226;51.600;8.034;2023-03-09T10:19:17;4.00;99.90
32877;DHT22;19226;51.600;8.034;2023-03-09T10:22:07;4.00;99.90
32877;DHT22;19226;51.600;8.034;2023-03-09T10:25:07;4.00;99.90
32877;DHT22;19226;51.600;8.034;2023-03-09T10:28:16;4.10;99.90
32877;DHT22;19226;51.600;8.034;2023-03-09T10:31:09;4.00;99.90
32877;DHT22;19226;51.600;8.034;2023-03-09T10:34:05;4.10;99.90
32877;DHT22;19226;51.600;8.034;2023-03-09T10:37:01;4.10;99.90
32877;DHT22;19226;51.600;8.034;2023-03-09T10:39:46;4.10;99.90
32877;DHT22;19226;51.600;8.034;2023-03-09T10:42:35;4.20;99.90
32877;DHT22;19226;51.600;8.034;2023-03-09T10:45:26;4.20;99.90
32877;DHT22;19226;51.600;8.034;2023-03-09T10:48:25;4.20;99.90
32877;DHT22;19226;51.600;8.034;2023-03-09T10:51:38;4.30;99.90
32877;DHT22;19226;51.600;8.034;2023-03-09T10:54:26;4.20;99.90
32877;DHT22;19226;51.600;8.034;2023-03-09T10:57:27;4.30;99.90
32877;DHT22;19226;51.600;8.034;2023-03-09T11:00:14;4.30;99.90
32877;DHT22;19226;51.600;8.034;2023-03-09T11:02:59;4.30;99.90
32877;DHT22;19226;51.600;8.034;2023-03-09T11:05:44;4.40;99.90
32877;DHT22;19226;51.600;8.034;2023-03-09T11:08:29;4.40;99.90
32877;DHT22;19226;51.600;8.034;2023-03-09T11:11:19;4.40;99.90
32877;DHT22;19226;51.600;8.034;2023-03-09T11:17:27;4.50;99.90
32877;DHT22;19226;51.600;8.034;2023-03-09T11:23:09;4.50;99.90
32877;DHT22;19226;51.600;8.034;2023-03-09T11:31:57;4.60;99.90
32877;DHT22;19226;51.600;8.034;2023-03-09T11:34:43;4.60;99.90
32877;DHT22;19226;51.600;8.034;2023-03-09T11:37:37;4.60;99.90
32877;DHT22;19226;51.600;8.034;2023-03-09T11:40:25;4.70;99.90
32877;DHT22;19226;51.600;8.034;2023-03-09T11:43:31;4.70;99.90
32877;DHT22;19226;51.600;8.034;2023-03-09T11:46:16;4.70;99.90
32877;DHT22;19226;51.600;8.034;2023-03-09T11:49:14;4.70;99.90
32877;DHT22;19226;51.600;8.034;2023-03-09T11:52:00;4.80;99.90
32877;DHT22;19226;51.600;8.034;2023-03-09T11:54:47;4.80;99.90
32877;DHT22;19226;51.600;8.034;2023-03-09T11:57:34;4.80;99.90
32877;DHT22;19226;51.600;8.034;2023-03-09T12:00:21;4.80;99.90
32877;DHT22;19226;51.600;8.034;2023-03-09T12:03:15;4.90;99.90
32877;DHT22;19226;51.600;8.034;2023-03-09T12:06:04;4.90;99.90
32877;DHT22;19226;51.600;8.034;2023-03-09T12:08:57;4.90;99.90
32877;DHT22;19226;51.600;8.034;2023-03-09T12:11:52;4.90;99.90
32877;DHT22;19226;51.600;8.034;2023-03-09T12:14:44;5.00;99.90
32877;DHT22;19226;51.600;8.034;2023-03-09T12:17:40;5.00;99.90
32877;DHT22;19226;51.600;8.034;2023-03-09T12:23:41;5.00;99.90
32877;DHT22;19226;51.600;8.034;2023-03-09T12:26:32;5.10;99.90
32877;DHT22;19226;51.600;8.034;2023-03-09T12:29:21;5.10;99.90
32877;DHT22;19226;51.600;8.034;2023-03-09T12:38:24;5.20;99.90
32877;DHT22;19226;51.600;8.034;2023-03-09T12:41:25;5.30;99.90
32877;DHT22;19226;51.600;8.034;2023-03-09T12:44:09;5.30;99.90
32877;DHT22;19226;51.600;8.034;2023-03-09T12:47:01;5.40;99.90
32877;DHT22;19226;51.600;8.034;2023-03-09T12:49:49;5.40;99.90
32877;DHT22;19226;51.600;8.034;2023-03-09T12:55:51;5.40;99.90
32877;DHT22;19226;51.600;8.034;2023-03-09T12:58:40;5.40;99.90
32877;DHT22;19226;51.600;8.034;2023-03-09T13:04:17;5.40;99.90
32877;DHT22;19226;51.600;8.034;2023-03-09T13:07:01;5.30;99.90
32877;DHT22;19226;51.600;8.034;2023-03-09T13:09:52;5.30;99.90
32877;DHT22;19226;51.600;8.034;2023-03-09T13:12:37;5.30;99.90
32877;DHT22;19226;51.600;8.034;2023-03-09T13:15:24;5.30;99.90
32877;DHT22;19226;51.600;8.034;2023-03-09T13:18:22;5.40;99.90
32877;DHT22;19226;51.600;8.034;2023-03-09T13:30:13;5.50;99.90
32877;DHT22;19226;51.600;8.034;2023-03-09T13:33:04;5.50;99.90
32877;DHT22;19226;51.600;8.034;2023-03-09T13:35:58;5.60;99.90
32877;DHT22;19226;51.600;8.034;2023-03-09T13:38:51;5.60;99.90
32877;DHT22;19226;51.600;8.034;2023-03-09T13:41:38;5.70;99.90
32877;DHT22;19226;51.600;8.034;2023-03-09T13:44:24;5.70;99.90
32877;DHT22;19226;51.600;8.034;2023-03-09T13:47:29;5.70;99.90
32877;DHT22;19226;51.600;8.034;2023-03-09T13:50:19;5.70;99.90
32877;DHT22;19226;51.600;8.034;2023-03-09T13:53:24;5.70;99.90
32877;DHT22;19226;51.600;8.034;2023-03-09T13:56:13;5.60;99.90
32877;DHT22;19226;51.600;8.034;2023-03-09T13:58:58;5.50;99.90
32877;DHT22;19226;51.600;8.034;2023-03-09T14:01:43;5.60;99.90
32877;DHT22;19226;51.600;8.034;2023-03-09T14:04:27;5.60;99.90
32877;DHT22;19226;51.600;8.034;2023-03-09T14:07:15;5.60;99.90
32877;DHT22;19226;51.600;8.034;2023-03-09T14:10:03;5.60;99.90
32877;DHT22;19226;51.600;8.034;2023-03-09T14:13:02;5.60;99.90
32877;DHT22;19226;51.600;8.034;2023-03-09T14:16:03;5.60;99.90
32877;DHT22;19226;51.600;8.034;2023-03-09T14:18:51;5.70;99.90
32877;DHT22;19226;51.600;8.034;2023-03-09T14:21:38;5.70;99.90
32877;DHT22;19226;51.600;8.034;2023-03-09T14:24:33;5.70;99.90
32877;DHT22;19226;51.600;8.034;2023-03-09T14:36:19;5.60;99.90
32877;DHT22;19226;51.600;8.034;2023-03-09T14:39:27;5.60;99.90
32877;DHT22;19226;51.600;8.034;2023-03-09T14:42:14;5.60;99.90
32877;DHT22;19226;51.600;8.034;2023-03-09T14:47:56;5.60;99.90
32877;DHT22;19226;51.600;8.034;2023-03-09T14:50:41;5.50;99.90
32877;DHT22;19226;51.600;8.034;2023-03-09T14:53:26;5.50;99.90
32877;DHT22;19226;51.600;8.034;2023-03-09T14:56:11;5.50;99.90
32877;DHT22;19226;51.600;8.034;2023-03-09T14:58:56;5.50;99.90
32877;DHT22;19226;51.600;8.034;2023-03-09T15:01:46;5.40;99.90
32877;DHT22;19226;51.600;8.034;2023-03-09T15:04:31;5.40;99.90
32877;DHT22;19226;51.600;8.034;2023-03-09T15:07:17;5.40;99.90
32877;DHT22;19226;51.600;8.034;2023-03-09T15:10:02;5.40;99.90
32877;DHT22;19226;51.600;8.034;2023-03-09T15:12:47;5.40;99.90
32877;DHT22;19226;51.600;8.034;2023-03-09T15:15:33;5.30;99.90
32877;DHT22;19226;51.600;8.034;2023-03-09T15:18:17;5.30;99.90
32877;DHT22;19226;51.600;8.034;2023-03-09T15:21:02;5.20;99.90
32877;DHT22;19226;51.600;8.034;2023-03-09T15:23:46;5.20;99.90
32877;DHT22;19226;51.600;8.034;2023-03-09T15:26:31;5.20;99.90
32877;DHT22;19226;51.600;8.034;2023-03-09T15:29:16;5.20;99.90
32877;DHT22;19226;51.600;8.034;2023-03-09T15:32:01;5.20;99.90
32877;DHT22;19226;51.600;8.034;2023-03-09T15:34:51;5.20;99.90
32877;DHT22;19226;51.600;8.034;2023-03-09T15:37:36;5.20;99.90
32877;DHT22;19226;51.600;8.034;2023-03-09T15:40:20;5.20;99.90
32877;DHT22;19226;51.600;8.034;2023-03-09T15:43:05;5.10;99.90
32877;DHT22;19226;51.600;8.034;2023-03-09T15:45:49;5.10;99.90
32877;DHT22;19226;51.600;8.034;2023-03-09T15:48:35;5.10;99.90
32877;DHT22;19226;51.600;8.034;2023-03-09T15:51:20;5.00;99.90
32877;DHT22;19226;51.600;8.034;2023-03-09T15:54:05;5.00;99.90
32877;DHT22;19226;51.600;8.034;2023-03-09T15:56:58;5.00;99.90
32877;DHT22;19226;51.600;8.034;2023-03-09T15:59:46;5.00;99.90
32877;DHT22;19226;51.600;8.034;2023-03-09T16:02:33;5.00;99.90
32877;DHT22;19226;51.600;8.034;2023-03-09T16:05:26;5.00;99.90
32877;DHT22;19226;51.600;8.034;2023-03-09T16:08:13;5.00;99.90
32877;DHT22;19226;51.600;8.034;2023-03-09T16:11:03;5.00;99.90
32877;DHT22;19226;51.600;8.034;2023-03-09T16:13:59;5.00;99.90
32877;DHT22;19226;51.600;8.034;2023-03-09T16:16:45;5.00;99.90
32877;DHT22;19226;51.600;8.034;2023-03-09T16:19:32;5.00;99.90
32877;DHT22;19226;51.600;8.034;2023-03-09T16:22:17;5.00;99.90
32877;DHT22;19226;51.600;8.034;2023-03-09T16:25:02;4.90;99.90
32877;DHT22;19226;51.600;8.034;2023-03-09T16:27:46;4.90;99.90
32877;DHT22;19226;51.600;8.034;2023-03-09T16:30:31;4.90;99.90
32877;DHT22;19226;51.600;8.034;2023-03-09T16:33:16;4.90;99.90
32877;DHT22;19226;51.600;8.034;2023-03-09T16:36:01;5.00;99.90
32877;DHT22;19226;51.600;8.034;2023-03-09T16:38:46;4.90;99.90
32877;DHT22;19226;51.600;8.034;2023-03-09T16:41:33;4.90;99.90
32877;DHT22;19226;51.600;8.034;2023-03-09T16:44:24;4.90;99.90
32877;DHT22;19226;51.600;8.034;2023-03-09T16:47:12;4.90;99.90
32877;DHT22;19226;51.600;8.034;2023-03-09T16:50:00;4.90;99.90
32877;DHT22;19226;51.600;8.034;2023-03-09T16:52:45;4.80;99.90
32877;DHT22;19226;51.600;8.034;2023-03-09T16:55:29;4.90;99.90
32877;DHT22;19226;51.600;8.034;2023-03-09T16:58:14;4.90;99.90
32877;DHT22;19226;51.600;8.034;2023-03-09T17:00:59;4.90;99.90
32877;DHT22;19226;51.600;8.034;2023-03-09T17:03:43;4.90;99.90
32877;DHT22;19226;51.600;8.034;2023-03-09T17:06:31;4.90;99.90
32877;DHT22;19226;51.600;8.034;2023-03-09T17:09:16;4.90;99.90
32877;DHT22;19226;51.600;8.034;2023-03-09T17:12:00;4.90;99.90
32877;DHT22;19226;51.600;8.034;2023-03-09T17:14:45;4.90;99.90
32877;DHT22;19226;51.600;8.034;2023-03-09T17:17:29;4.90;99.90
32877;DHT22;19226;51.600;8.034;2023-03-09T17:20:14;4.80;99.90
32877;DHT22;19226;51.600;8.034;2023-03-09T17:22:58;4.80;99.90
32877;DHT22;19226;51.600;8.034;2023-03-09T17:25:43;4.80;99.90
32877;DHT22;19226;51.600;8.034;2023-03-09T17:28:28;4.80;99.90
32877;DHT22;19226;51.600;8.034;2023-03-09T17:31:18;4.70;99.90
32877;DHT22;19226;51.600;8.034;2023-03-09T17:34:03;4.70;99.90
32877;DHT22;19226;51.600;8.034;2023-03-09T17:36:48;4.70;99.90
32877;DHT22;19226;51.600;8.034;2023-03-09T17:39:33;4.70;99.90
32877;DHT22;19226;51.600;8.034;2023-03-09T17:42:17;4.70;99.90
32877;DHT22;19226;51.600;8.034;2023-03-09T17:45:02;4.70;99.90
32877;DHT22;19226;51.600;8.034;2023-03-09T17:47:46;4.70;99.90
32877;DHT22;19226;51.600;8.034;2023-03-09T17:50:31;4.60;99.90
32877;DHT22;19226;51.600;8.034;2023-03-09T17:53:16;4.60;99.90
32877;DHT22;19226;51.600;8.034;2023-03-09T17:56:01;4.60;99.90
32877;DHT22;19226;51.600;8.034;2023-03-09T17:58:47;4.60;99.90
32877;DHT22;19226;51.600;8.034;2023-03-09T18:01:33;4.60;99.90
32877;DHT22;19226;51.600;8.034;2023-03-09T18:04:17;4.60;99.90
32877;DHT22;19226;51.600;8.034;2023-03-09T18:07:02;4.60;99.90
32877;DHT22;19226;51.600;8.034;2023-03-09T18:09:50;4.60;99.90
32877;DHT22;19226;51.600;8.034;2023-03-09T18:12:35;4.60;99.90
32877;DHT22;19226;51.600;8.034;2023-03-09T18:15:19;4.60;99.90
32877;DHT22;19226;51.600;8.034;2023-03-09T18:18:04;4.60;99.90
32877;DHT22;19226;51.600;8.034;2023-03-09T18:20:50;4.60;99.90
32877;DHT22;19226;51.600;8.034;2023-03-09T18:23:34;4.60;99.90
32877;DHT22;19226;51.600;8.034;2023-03-09T18:26:26;4.50;99.90
32877;DHT22;19226;51.600;8.034;2023-03-09T18:29:11;4.50;99.90
32877;DHT22;19226;51.600;8.034;2023-03-09T18:31:56;4.50;99.90
32877;DHT22;19226;51.600;8.034;2023-03-09T18:34:40;4.50;99.90
32877;DHT22;19226;51.600;8.034;2023-03-09T18:37:27;4.50;99.90
32877;DHT22;19226;51.600;8.034;2023-03-09T18:40:12;4.50;99.90
32877;DHT22;19226;51.600;8.034;2023-03-09T18:42:57;4.50;99.90
32877;DHT22;19226;51.600;8.034;2023-03-09T18:45:41;4.40;99.90
32877;DHT22;19226;51.600;8.034;2023-03-09T18:48:26;4.40;99.90